Tiempo atmosférico en la estación meteorológica de Cebreros, Ávila (850 m.)



Fecha
DESCASC
Temp. máxima en grados centígrados (hora)
DESCASC
Temp. mínima en grados centígrados (hora)
DESCASC
Temp. media en grados centígrados
DESCASC
Racha de viento máxima en m/sg (hora)
DESCASC
Velocidad máxima media en intervalos de 10 minutos(hora)
DESCASC
Precipitaciones diarias en mm
DESCASC
Precipitaciones de 00:00 a 06:00 en mm
DESCASC
Precipitaciones de 06:00 a 12:00 en mm
DESCASC
Precipitaciones de 12:00 a 18:00 en mm
DESCASC
Precipitaciones de 18:00 a 24:00 en mm
DESCASC
20-10-2019 11.6 (00:10) 5.5 (23:30) 8.6 10.28 (17:00) 4.17 (19:10) 0.4 0 0.4 0 0
19-10-2019 19.4 (13:50) 7.6 (03:30) 13.5 10.56 (15:30) 5.28 (15:40) 9.8 0 0 0 9.8
18-10-2019 21.6 (15:50) 10 (23:59) 15.8 7.5 (16:00) 3.89 (14:40) 0 0 0 0 0
17-10-2019 17.8 (13:50) 7.8 (00:00) 12.8 6.67 (15:20) 4.17 (17:10) 0.6 0 0.6 0 0
16-10-2019 17.5 (16:10) 5 (00:00) 11.3 6.67 (14:40) 3.61 (14:20) 0 0 0 0 0
15-10-2019 17.5 (15:00) 5.5 (00:00) 11.5 12.78 (00:10) 4.17 (15:40) 0 0 0 0 0
14-10-2019 20.8 (14:30) 7.7 (00:00) 14.2 11.11 (07:10) 5 (07:10) 4.8 0 0.4 3 1.4
13-10-2019 22.5 (14:20) 14.2 (00:00) 18.3 -- (--) -- (--) -- 0 0 -- 0
12-10-2019 27 (15:20) 16 (00:00) 21.5 -- (--) -- (--) -- -- 0 0 0.2
11-10-2019 26.2 (16:00) 12.7 (00:00) 19.5 7.22 (17:00) 3.61 (17:30) 0 0 0 0 0
10-10-2019 24.8 (17:20) 10.9 (00:00) 17.8 -- (--) -- (--) -- -- 0 0 0
09-10-2019 27.4 (15:50) 16.8 (00:00) 22.1 -- (--) -- (--) -- 0 -- 0 0
08-10-2019 -- (--) -- (--) -- -- (--) -- (--) -- 0 0 0 --
07-10-2019 -- (--) -- (--) -- -- (--) -- (--) -- -- 0 0 --
06-10-2019 27.3 (12:50) 13.5 (00:00) 20.4 9.44 (21:50) 5 (01:20) 0 0 0 0 0
05-10-2019 28.1 (14:30) 12.9 (00:00) 20.5 -- (--) -- (--) 0 0 0 0 0
04-10-2019 28 (15:20) 12.6 (00:00) 20.3 10.56 (02:50) 4.17 (02:50) 0 0 0 0 0
03-10-2019 26.1 (15:10) 10.4 (00:00) 18.3 9.72 (17:30) 4.17 (18:20) 0 0 0 0 0
02-10-2019 21.5 (15:10) 11.6 (00:00) 16.6 -- (--) -- (--) -- 0 0 -- 0
01-10-2019 -- (--) -- (--) -- -- (--) -- (--) -- 0 -- 0 0
30-09-2019 -- (--) -- (--) -- -- (--) -- (--) -- 0 0 0 --
29-09-2019 30.6 (14:50) 13.2 (00:00) 21.9 7.78 (17:00) 4.17 (17:00) 0 0 0 0 0
28-09-2019 28.8 (14:50) 11.3 (00:00) 20 10 (01:30) 5.83 (06:00) 0 0 0 0 0
27-09-2019 28.9 (15:00) 15.7 (00:00) 22.3 9.17 (21:00) 5.28 (21:00) 0 0 0 0 0
26-09-2019 27.3 (16:00) 12 (00:00) 19.6 7.5 (23:50) 3.89 (23:59) 0 0 0 0 0
25-09-2019 23.2 (16:20) 12.9 (00:00) 18.1 10.28 (02:30) 6.11 (02:20) 0 0 0 0 0
24-09-2019 27.2 (14:50) 10.3 (00:00) 18.8 8.33 (19:20) 3.89 (19:10) 0 0 0 0 0
23-09-2019 23.8 (15:40) 10.7 (00:00) 17.2 6.67 (15:50) 2.78 (14:10) 0 0 0 0 0
22-09-2019 22 (15:40) 12.1 (00:00) 17.1 8.89 (10:30) 4.17 (10:30) 3.4 1.2 2.2 0 0

Gráficas

Temp. máximas Temp. mínimas Temp. medias Precipitaciones Rachas de viento máximas Velocidades máximas media en intervalos de 10 minutos

Datos horarios

Fecha y hora oficial Temperatura (ºC) Velocidad del viento (km/h) Dirección del viento Racha (km/h) Dirección de racha Precipitación (mm) Presión (hPa) Tendencia (hPa) Humedad (%)
2019-10-21 23:00:00 6.3 0 Calma 14 Oeste 0 -- -- 78
2019-10-21 22:00:00 7.3 8 Oeste 13 Oeste 0 -- -- 74
2019-10-21 21:00:00 7.2 5 Norte 10 Noroeste 0 -- -- 80
2019-10-21 20:00:00 9 2 Nordeste 11 Oeste 0 -- -- 79
2019-10-21 19:00:00 11.1 0 Calma 7 Sur 0 -- -- 63
2019-10-21 18:00:00 11.9 3 Sur 13 Sudeste 0 -- -- 58
2019-10-21 17:00:00 13.8 4 Sudoeste 15 Oeste 0 -- -- 51
2019-10-21 16:00:00 14.3 6 Sudoeste 20 Sudeste 0 -- -- 51
2019-10-21 15:00:00 14.3 9 Sudeste 18 Sur 0 -- -- 48
2019-10-21 14:00:00 13.6 5 Sur 17 Sudeste 0 -- -- 52
2019-10-21 13:00:00 12.6 8 Sudeste 19 Sudeste 0 -- -- 59
2019-10-21 12:00:00 12.4 7 Sur 13 Sur 0 -- -- 63
2019-10-21 11:00:00 11.1 4 Sudeste 8 Sudeste 0 -- -- 66
2019-10-21 10:00:00 9.8 3 Nordeste 6 Noroeste 0 -- -- 68
2019-10-21 09:00:00 3.5 3 Noroeste 6 Noroeste 0 -- -- 91
2019-10-21 08:00:00 3.2 0 Calma 4 Oeste 0 -- -- 91
2019-10-21 07:00:00 3.5 3 Sudoeste 7 Sudoeste 0 -- -- 91
2019-10-21 06:00:00 3 2 Norte 6 Norte 0 -- -- 92
2019-10-21 05:00:00 3.7 3 Noroeste 7 Norte 0 -- -- 88
2019-10-21 04:00:00 3.8 3 Este 8 Norte 0 -- -- 87
2019-10-21 03:00:00 5.4 3 Oeste 10 Noroeste 0 -- -- 82
2019-10-21 02:00:00 4.5 5 Noroeste 14 Oeste 0 -- -- 89
2019-10-21 01:00:00 5.9 4 Noroeste 10 Oeste 0 -- -- 84
2019-10-21 00:00:00 5.9 5 Oeste 9 Noroeste 0 -- -- 84
2019-10-20 23:00:00 6.2 2 Este 18 Noroeste 0 -- -- 82
2019-10-20 22:00:00 7.5 6 Noroeste 17 Noroeste 0 -- -- 76
2019-10-20 21:00:00 7.9 4 Norte 32 Noroeste 0 -- -- 76
2019-10-20 20:00:00 8.3 8 Noroeste 30 Noroeste 0 -- -- 75
2019-10-20 19:00:00 8.8 10 Noroeste 33 Noroeste 0 -- -- 72
2019-10-20 18:00:00 9 13 Noroeste 32 Norte 0 -- -- 72
2019-10-20 17:00:00 9.6 13 Noroeste 37 Oeste 0 -- -- 70
2019-10-20 16:00:00 11.2 12 Noroeste 30 Norte 0 -- -- 66
2019-10-20 15:00:00 10.6 11 Norte 33 Oeste 0 -- -- 71
2019-10-20 14:00:00 9.3 13 Noroeste 28 Oeste 0 -- -- 77
2019-10-20 13:00:00 9.8 6 Oeste 23 Sudoeste 0 -- -- 81
2019-10-20 12:00:00 8.6 4 Noroeste 12 Oeste 0.2 -- -- 93
2019-10-20 11:00:00 8.5 6 Este 8 Este 0.2 -- -- 95
2019-10-20 10:00:00 7.7 4 Nordeste 8 Noroeste 0 -- -- 96
2019-10-20 09:00:00 6.5 4 Norte 8 Nordeste 0 -- -- 96
2019-10-20 08:00:00 7.2 3 Nordeste 6 Nordeste 0 -- -- 96
2019-10-20 07:00:00 7.6 0 Calma 7 Noroeste 0 -- -- 96
2019-10-20 06:00:00 7.4 3 Nordeste 10 Sudeste 0 -- -- 95
2019-10-20 05:00:00 8.1 2 Este 8 Este 0 -- -- 92
2019-10-20 04:00:00 7.2 2 Norte 6 Nordeste 0 -- -- 95
2019-10-20 03:00:00 7.5 3 Nordeste 14 Oeste 0 -- -- 92
2019-10-20 02:00:00 9.5 8 Oeste 16 Sudoeste 0 -- -- 88
2019-10-20 01:00:00 11.1 5 Sudoeste 15 Sudoeste 0 -- -- 96
2019-10-20 00:00:00 11.5 3 Noroeste 14 Sudeste 0 -- -- 96
2019-10-19 23:00:00 11.5 5 Sudoeste 17 Sudeste 0.4 -- -- 96
2019-10-19 22:00:00 11.3 4 Este 12 Este 1.4 -- -- 96
2019-10-19 21:00:00 11.2 3 Norte 12 Nordeste 5.2 -- -- 96
2019-10-19 20:00:00 11.3 6 Noroeste 11 Sudeste 2.8 -- -- 93
2019-10-19 19:00:00 11.5 3 Nordeste 23 Sur 0 -- -- 91
2019-10-19 18:00:00 10.9 12 Sur 32 Sudeste 0 -- -- 93
2019-10-19 17:00:00 12 17 Sudeste 33 Sudeste 0 -- -- 82
2019-10-19 16:00:00 13.1 15 Sur 38 Sudeste 0 -- -- 74
2019-10-19 15:00:00 15.4 10 Sudeste 31 Sudeste 0 -- -- 63
2019-10-19 14:00:00 17.4 13 Sudeste 23 Sudeste 0 -- -- 54
2019-10-19 13:00:00 14.9 6 Este 18 Sudeste 0 -- -- 60
2019-10-19 12:00:00 13.2 7 Sudeste 17 Sudeste 0 -- -- 66
2019-10-19 11:00:00 12.7 8 Este 17 Nordeste 0 -- -- 73
2019-10-19 10:00:00 10.2 8 Nordeste 14 Nordeste 0 -- -- 83
2019-10-19 09:00:00 8.7 6 Norte 12 Norte 0 -- -- 86
2019-10-19 08:00:00 8.1 8 Norte 12 Norte 0 -- -- 84
2019-10-19 07:00:00 8.5 2 Noroeste 9 Sudeste 0 -- -- 82
2019-10-19 06:00:00 10.4 6 Noroeste 19 Oeste 0 -- -- 75
2019-10-19 05:00:00 10.7 6 Oeste 14 Noroeste 0 -- -- 70
2019-10-19 04:00:00 9.5 9 Norte 12 Norte 0 -- -- 80
2019-10-19 03:00:00 8.8 4 Noroeste 10 Noroeste 0 -- -- 77
2019-10-19 02:00:00 8.9 3 Norte 10 Noroeste 0 -- -- 80
2019-10-19 01:00:00 9.6 4 Noroeste 9 Noroeste 0 -- -- 78
2019-10-19 00:00:00 10 3 Norte 12 Noroeste 0 -- -- 77
2019-10-18 23:00:00 11 5 Norte 15 Oeste 0 -- -- 73
2019-10-18 22:00:00 13 5 Noroeste 17 Oeste 0 -- -- 64
2019-10-18 21:00:00 15.1 5 Oeste 11 Sur 0 -- -- 58
2019-10-18 20:00:00 15.5 5 Sudoeste 22 Sudoeste 0 -- -- 58
2019-10-18 19:00:00 17.8 8 Sudoeste 21 Sudoeste 0 -- -- 50
2019-10-18 18:00:00 20 5 Sudoeste 18 Sur 0 -- -- 50
2019-10-18 17:00:00 20.3 6 Sudoeste 24 Sur 0 -- -- 52
2019-10-18 16:00:00 20.9 13 Sur 27 Sudeste 0 -- -- 58
2019-10-18 15:00:00 20.8 9 Sur 25 Sur 0 -- -- 53
2019-10-18 14:00:00 20 10 Sudeste 18 Sudeste 0 -- -- 61
2019-10-18 13:00:00 18.4 5 Este 10 Este 0 -- -- 73
2019-10-18 12:00:00 17.3 4 Este 8 Sudeste 0 -- -- 79
2019-10-18 11:00:00 15.8 3 Nordeste 10 Nordeste 0 -- -- 86
2019-10-18 10:00:00 14.2 3 Nordeste 9 Norte 0 -- -- 95
2019-10-18 09:00:00 13.1 2 Nordeste 13 Este 0 -- -- 97
2019-10-18 08:00:00 13.4 7 Nordeste 10 Nordeste 0 -- -- 96
2019-10-18 07:00:00 13.6 5 Norte 9 Nordeste 0 -- -- 96
2019-10-18 06:00:00 13.6 6 Nordeste 10 Norte 0 -- -- 96
2019-10-18 05:00:00 13.5 4 Nordeste 9 Norte 0 -- -- 96
2019-10-18 04:00:00 13.4 3 Norte 8 Nordeste 0 -- -- 96
2019-10-18 03:00:00 13.3 0 Calma 9 Nordeste 0 -- -- 95
2019-10-18 02:00:00 13.1 3 Norte 9 Este 0 -- -- 95
2019-10-18 01:00:00 13.1 2 Norte 10 Este 0 -- -- 94
2019-10-18 00:00:00 13 4 Nordeste 8 Nordeste 0 -- -- 92
2019-10-17 23:00:00 12.9 7 Nordeste 11 Nordeste 0 -- -- 91
2019-10-17 22:00:00 13 5 Nordeste 14 Norte 0 -- -- 87
2019-10-17 21:00:00 13.3 5 Norte 10 Norte 0 -- -- 86
2019-10-17 20:00:00 14.2 5 Nordeste 14 Nordeste 0 -- -- 80
2019-10-17 19:00:00 15.4 7 Nordeste 18 Este 0 -- -- 75
2019-10-17 18:00:00 16.3 13 Este 23 Este 0 -- -- 71
2019-10-17 17:00:00 16.2 14 Nordeste 23 Este 0 -- -- 71
2019-10-17 16:00:00 17 12 Este 24 Sudeste 0 -- -- 68
2019-10-17 15:00:00 17.8 10 Este 20 Sudeste 0 -- -- 65
2019-10-17 14:00:00 17.3 8 Este 13 Sudeste 0 -- -- 61
2019-10-17 13:00:00 15.7 7 Este 13 Este 0 -- -- 61
2019-10-17 12:00:00 13 3 Sudeste 9 Sudeste 0 -- -- 76
2019-10-17 11:00:00 11.8 5 Este 10 Nordeste 0 -- -- 79
2019-10-17 10:00:00 9 0 Calma 6 Sur 0.2 -- -- 90
2019-10-17 09:00:00 9.1 0 Calma 5 Sudoeste 0.4 -- -- 86
2019-10-17 08:00:00 9.4 0 Calma 4 Nordeste 0 -- -- 78
2019-10-17 07:00:00 9.4 0 Calma 4 Sur 0 -- -- 77
2019-10-17 06:00:00 9.1 2 Noroeste 6 Noroeste 0 -- -- 79
2019-10-17 05:00:00 8.9 0 Calma 9 Norte 0 -- -- 76
2019-10-17 04:00:00 9.6 5 Norte 9 Norte 0 -- -- 74
2019-10-17 03:00:00 7.8 3 Noroeste 10 Noroeste 0 -- -- 80
2019-10-17 02:00:00 8.1 3 Norte 13 Noroeste 0 -- -- 78
2019-10-17 01:00:00 9.8 7 Noroeste 10 Noroeste 0 -- -- 73
2019-10-17 00:00:00 10.3 6 Norte 13 Norte 0 -- -- 71
2019-10-16 23:00:00 11 8 Norte 12 Norte 0 -- -- 68
2019-10-16 22:00:00 12.1 5 Norte 17 Norte 0 -- -- 63
2019-10-16 21:00:00 13.1 8 Norte 14 Norte 0 -- -- 60
2019-10-16 20:00:00 13.6 8 Norte 16 Este 0 -- -- 59
2019-10-16 19:00:00 15.6 11 Este 17 Este 0 -- -- 53
2019-10-16 18:00:00 16.6 9 Este 20 Este 0 -- -- 48
2019-10-16 17:00:00 17.2 12 Este 21 Este 0 -- -- 47
2019-10-16 16:00:00 17.3 9 Este 20 Este 0 -- -- 47
2019-10-16 15:00:00 17.1 11 Este 24 Sudeste 0 -- -- 46
2019-10-16 14:00:00 16.9 9 Este 17 Nordeste 0 -- -- 47
2019-10-16 13:00:00 15.9 6 Sudeste 14 Sudeste 0 -- -- 49
2019-10-16 12:00:00 15.9 5 Sudeste 12 Sudeste 0 -- -- 50
2019-10-16 11:00:00 13.2 3 Sudeste 7 Sur 0 -- -- 57
2019-10-16 10:00:00 12.8 3 Sur 6 Sur 0 -- -- 56
2019-10-16 09:00:00 5.5 0 Calma 8 Nordeste 0 -- -- 85
2019-10-16 08:00:00 5.2 3 Nordeste 9 Noroeste 0 -- -- 83
2019-10-16 07:00:00 5.8 0 Calma 10 Oeste 0 -- -- 81
2019-10-16 06:00:00 7 5 Noroeste 10 Noroeste 0 -- -- 77
2019-10-16 05:00:00 7.3 0 Calma 5 Oeste 0 -- -- 75
2019-10-16 04:00:00 7.3 3 Oeste 6 Sudoeste 0 -- -- 76
2019-10-16 03:00:00 6.9 0 Calma 6 Noroeste 0 -- -- 77
2019-10-16 02:00:00 8 3 Norte 8 Noroeste 0 -- -- 74
2019-10-16 01:00:00 10.8 8 Noroeste 13 Noroeste 0 -- -- 60
2019-10-16 00:00:00 10.1 3 Oeste 5 Sudoeste 0 -- -- 65
2019-10-15 23:00:00 9.3 0 Calma 8 Oeste 0 -- -- 66
2019-10-15 22:00:00 10 3 Nordeste 15 Noroeste 0 -- -- 63
2019-10-15 21:00:00 11.5 5 Noroeste 25 Noroeste 0 -- -- 56
2019-10-15 20:00:00 12.2 7 Norte 18 Noroeste 0 -- -- 53
2019-10-15 19:00:00 13.9 8 Nordeste 19 Norte 0 -- -- 49
2019-10-15 18:00:00 14.5 7 Sudeste 18 Sudeste 0 -- -- 48
2019-10-15 17:00:00 15.2 9 Sur 24 Sudeste 0 -- -- 47
2019-10-15 16:00:00 15.9 9 Sur 26 Sur 0 -- -- 46
2019-10-15 15:00:00 17.5 9 Sur 23 Sur 0 -- -- 42
2019-10-15 14:00:00 16.7 8 Nordeste 21 Noroeste 0 -- -- 41
2019-10-15 13:00:00 15.2 9 Noroeste 22 Noroeste 0 -- -- 43
2019-10-15 12:00:00 13.6 12 Noroeste 24 Oeste 0 -- -- 48
2019-10-15 11:00:00 14.1 5 Sudoeste 17 Sudoeste 0 -- -- 47
2019-10-15 10:00:00 11.7 6 Oeste 18 Oeste 0 -- -- 54
2019-10-15 09:00:00 7.4 4 Oeste 21 Noroeste 0 -- -- 68
2019-10-15 08:00:00 6.8 8 Oeste 24 Noroeste 0 -- -- 70
2019-10-15 07:00:00 7.1 15 Oeste 27 Noroeste 0 -- -- 67
2019-10-15 06:00:00 6.4 10 Noroeste 19 Noroeste 0 -- -- 71
2019-10-15 05:00:00 6.6 4 Sur 13 Oeste 0 -- -- 68
2019-10-15 04:00:00 7 8 Sur 18 Sur 0 -- -- 67
2019-10-15 03:00:00 7.4 6 Sudoeste 19 Este 0 -- -- 68
2019-10-15 02:00:00 7.3 4 Sur 14 Oeste 0 -- -- 68
2019-10-15 01:00:00 7.6 4 Oeste 46 Oeste 0 -- -- 67
2019-10-15 00:00:00 8.6 10 Oeste 28 Oeste 0 -- -- 67
2019-10-14 23:00:00 9 12 Oeste 29 Oeste 0 -- -- 68
2019-10-14 22:00:00 8.5 7 Oeste 24 Noroeste 0 -- -- 75
2019-10-14 21:00:00 8.3 12 Oeste 27 Sudoeste 0 -- -- 80
2019-10-14 20:00:00 9.3 6 Oeste 18 Norte 0 -- -- 88
2019-10-14 19:00:00 9.4 3 Sudoeste 26 Oeste 1.4 -- -- 88
2019-10-14 18:00:00 10.8 6 Oeste 21 Sur 3 -- -- 88
2019-10-14 17:00:00 14.4 7 Sudoeste 20 Sudoeste 0 -- -- 62
2019-10-14 16:00:00 16.1 11 Sudoeste 28 Sudoeste 0 -- -- 51
2019-10-14 15:00:00 19.7 13 Sudoeste 31 Sudoeste 0 -- -- 40
2019-10-14 14:00:00 20.2 9 Sur 33 Sudoeste 0 -- -- 41
2019-10-14 13:00:00 18 9 Sur 25 Sudoeste 0 -- -- 53
2019-10-14 12:00:00 16.6 14 Sudoeste 32 Sudoeste 0 -- -- 60
2019-10-14 11:00:00 13.4 8 Sur 26 Sudoeste 0.2 -- -- 82
2019-10-14 10:00:00 13.8 5 Sudoeste 26 Sur 0.2 -- -- 78
2019-10-14 09:00:00 15.4 9 Sudoeste 29 Sudoeste 0 -- -- 65
2019-10-14 08:00:00 16.3 11 Sur 40 Sudeste 0 -- -- 63
2019-10-14 07:00:00 16.7 11 Sudoeste 35 Sur 0 -- -- 64
2019-10-14 06:00:00 15.9 9 Este 21 Este 0 -- -- 62
2019-10-14 05:00:00 15.8 0 Calma 6 Sudeste 0 -- -- 65
2019-10-14 04:00:00 16.2 3 Norte 5 Norte 0 -- -- 63
2019-10-14 03:00:00 15.9 2 Norte 8 Oeste 0 -- -- 66
2019-10-14 02:00:00 16.5 4 Sudoeste 11 Sudoeste 0 -- -- 65
2019-10-14 01:00:00 15.5 3 Oeste 6 Oeste 0 -- -- 66
2019-10-14 00:00:00 16.3 0 Calma 9 Norte 0 -- -- 62
2019-10-13 23:00:00 15.9 3 Noroeste 7 Norte 0 -- -- 61
2019-10-13 22:00:00 16.1 2 Noroeste 3 Noroeste 0 -- -- 58
2019-10-13 21:00:00 17.4 0 Calma 9 Sudoeste 0 -- -- 53
2019-10-13 20:00:00 19.1 5 Sur 21 Sudeste 0 -- -- 49
2019-10-13 19:00:00 20.4 11 Sur 22 Sur 0 -- -- 45
2019-10-13 18:00:00 21.3 10 Sur 30 Sudeste 0 -- -- 45
2019-10-13 17:00:00 21.9 12 Sur 30 Sudeste 0 -- -- 42
2019-10-13 16:00:00 -- -- -- -- -- -- -- -- --
2019-10-13 15:00:00 21.9 14 Sur 27 Sudeste 0 -- -- 44
2019-10-13 14:00:00 20.9 15 Sudeste 32 Sudeste 0 -- -- 51
2019-10-13 13:00:00 20.6 15 Sur 33 Sur 0 -- -- 52
2019-10-13 12:00:00 20.2 15 Sudeste 28 Sudeste 0 -- -- 53
2019-10-13 11:00:00 19.3 15 Sur 26 Sur 0 -- -- 62
2019-10-13 10:00:00 18.5 5 Sudeste 13 Sur 0 -- -- 67
2019-10-13 09:00:00 14.6 3 Sudeste 16 Sudeste 0 -- -- 86
2019-10-13 08:00:00 15.2 8 Sudeste 15 Sudeste 0 -- -- 87
2019-10-13 07:00:00 15.8 8 Sudeste 18 Sudeste 0 -- -- 84
2019-10-13 06:00:00 16 8 Sudeste 16 Sur 0 -- -- 81
2019-10-13 05:00:00 16.4 5 Sudeste 13 Sudeste 0 -- -- 77
2019-10-13 04:00:00 16.8 2 Sudoeste 14 Sur 0 -- -- 63
2019-10-13 03:00:00 16.3 0 Calma 10 Sur 0 -- -- 64
2019-10-13 02:00:00 16.6 0 Calma 5 Noroeste 0 -- -- 60
2019-10-13 01:00:00 16.2 3 Noroeste 5 Noroeste 0 -- -- 61
2019-10-13 00:00:00 16.4 5 Norte 10 Norte 0 -- -- 60
2019-10-12 23:00:00 18.1 2 Sudeste 13 Este 0 -- -- 55
2019-10-12 22:00:00 18.4 7 Este 11 Este 0 -- -- 59
2019-10-12 21:00:00 18.9 6 Norte 11 Nordeste 0 -- -- 54
2019-10-12 20:00:00 20 0 Calma 27 Oeste 0.2 -- -- 49
2019-10-12 19:00:00 20.2 10 Oeste 30 Noroeste 0 -- -- 52
2019-10-12 18:00:00 24.1 11 Sur 32 Sudeste 0 -- -- 37
2019-10-12 17:00:00 25.5 12 Sur 30 Este 0 -- -- 35
2019-10-12 16:00:00 26.5 15 Sur 32 Sudeste 0 -- -- 36
2019-10-12 15:00:00 24.6 12 Sudeste 28 Sudeste 0 -- -- 43
2019-10-12 14:00:00 26.1 10 Sudeste 23 Sudeste 0 -- -- 42
2019-10-12 13:00:00 21.3 6 Sur 17 Sudeste 0 -- -- 55
2019-10-12 12:00:00 22.2 5 Sudoeste 10 Sur 0 -- -- 52
2019-10-12 11:00:00 19.3 3 Sudoeste 10 Sur 0 -- -- 62
2019-10-12 10:00:00 17.2 4 Sudoeste 10 Sudoeste 0 -- -- 69
2019-10-12 09:00:00 16 3 Norte 7 Noroeste 0 -- -- 72
2019-10-12 08:00:00 16.3 3 Oeste 8 Sudoeste 0 -- -- 72
2019-10-12 07:00:00 17.4 4 Sudoeste 10 Sur 0 -- -- 68
2019-10-12 06:00:00 18.3 3 Oeste 8 Sudoeste 0 -- -- 66
2019-10-12 05:00:00 18.4 0 Calma 10 Noroeste 0 -- -- 64
2019-10-12 04:00:00 18.5 0 Calma 7 Norte 0 -- -- 63
2019-10-12 03:00:00 19.1 4 Noroeste 8 Noroeste 0 -- -- 61
2019-10-12 02:00:00 18.6 2 Norte 8 Norte 0 -- -- 62
2019-10-12 01:00:00 19.4 -- -- -- -- -- -- -- --
2019-10-12 00:00:00 19.5 3 Noroeste 5 Noroeste 0 -- -- 60
2019-10-11 23:00:00 20 0 Calma 10 Sudoeste 0 -- -- 59
2019-10-11 22:00:00 20.8 0 Calma 10 Sudeste 0 -- -- 57
2019-10-11 21:00:00 21.4 2 Este 11 Este 0 -- -- 55
2019-10-11 20:00:00 21.3 4 Norte 10 Sudeste 0 -- -- 55
2019-10-11 19:00:00 23.2 8 Sudeste 18 Sudeste 0 -- -- 50
2019-10-11 18:00:00 24.5 8 Sudeste 25 Sudeste 0 -- -- 48
2019-10-11 17:00:00 25.2 11 Sur 26 Sur 0 -- -- 48
2019-10-11 16:00:00 26.2 7 Sur 21 Sudeste 0 -- -- 46
2019-10-11 15:00:00 25.3 10 Sudeste 22 Sudeste 0 -- -- 48
2019-10-11 14:00:00 24.6 9 Sudeste 20 Sur 0 -- -- 51
2019-10-11 13:00:00 23.6 7 Sur 18 Sudeste 0 -- -- 54
2019-10-11 12:00:00 23.1 6 Sur 14 Sudeste 0 -- -- 55
2019-10-11 11:00:00 22 4 Sur 9 Sur 0 -- -- 58
2019-10-11 10:00:00 19.4 2 Este 4 Sudeste 0 -- -- 64
2019-10-11 09:00:00 13.6 0 Calma 3 Nordeste 0 -- -- 83
2019-10-11 08:00:00 13.2 0 Calma 3 Noroeste 0 -- -- 82
2019-10-11 07:00:00 14.4 0 Calma 5 Noroeste 0 -- -- 76
2019-10-11 06:00:00 14.5 0 Calma 5 Oeste 0 -- -- 78
2019-10-11 05:00:00 15.3 2 Sudoeste 6 Noroeste 0 -- -- 70
2019-10-11 04:00:00 15.8 5 Noroeste 8 Noroeste 0 -- -- 68
2019-10-11 03:00:00 13.9 2 Norte 6 Noroeste 0 -- -- 71
2019-10-11 02:00:00 15 3 Noroeste 5 Noroeste 0 -- -- 66
2019-10-11 01:00:00 15.9 3 Oeste 6 Noroeste 0 -- -- 63
2019-10-11 00:00:00 15.5 3 Noroeste 5 Noroeste 0 -- -- 64
2019-10-10 23:00:00 15.8 3 Noroeste 8 Noroeste 0 -- -- 62
2019-10-10 22:00:00 18.3 5 Noroeste 12 Noroeste 0 -- -- 54
2019-10-10 21:00:00 19.4 5 Noroeste 10 Noroeste 0 -- -- 52
2019-10-10 20:00:00 20.9 0 Calma 10 Este 0 -- -- 49
2019-10-10 19:00:00 23.5 7 Sudeste 20 Sudeste 0 -- -- 43
2019-10-10 18:00:00 24.4 6 Sudeste 18 Sudeste 0 -- -- 41
2019-10-10 17:00:00 24.4 5 Sur 18 Sudeste 0 -- -- 44
2019-10-10 16:00:00 24.7 8 Sudeste 19 Sudeste 0 -- -- 44
2019-10-10 15:00:00 24.2 9 Sudeste 19 Sudeste 0 -- -- 48
2019-10-10 14:00:00 23.2 8 Sudeste 20 Este 0 -- -- 51
2019-10-10 13:00:00 21.8 9 Este 17 Este 0 -- -- 55
2019-10-10 12:00:00 20.5 6 Sur 12 Sudeste 0 -- -- 54
2019-10-10 11:00:00 18.6 3 Sur 7 Sudoeste 0 -- -- 60
2019-10-10 10:00:00 15.9 0 Calma 6 Noroeste 0 -- -- 62
2019-10-10 09:00:00 13.3 3 Noroeste 6 Noroeste 0 -- -- 62
2019-10-10 08:00:00 11.2 2 Noroeste 9 Noroeste 0 -- -- 68
2019-10-10 07:00:00 12.1 6 Noroeste 13 Noroeste 0 -- -- 62
2019-10-10 06:00:00 13.9 9 Noroeste 14 Noroeste 0 -- -- 56
2019-10-10 05:00:00 14.6 5 Norte 25 Oeste 0 -- -- 54
2019-10-10 04:00:00 16.1 14 Noroeste 23 Noroeste 0 -- -- 49
2019-10-10 03:00:00 15.9 6 Noroeste 14 Noroeste 0 -- -- 52
2019-10-10 02:00:00 16.4 -- -- -- -- -- -- -- --
2019-10-10 01:00:00 16.5 2 Este 19 Oeste 0 -- -- 48
2019-10-10 00:00:00 18 14 Noroeste 31 Noroeste 0 -- -- 43
2019-10-09 23:00:00 19.1 17 Noroeste 33 Noroeste 0 -- -- 39
2019-10-09 22:00:00 20 17 Noroeste 33 Noroeste 0 -- -- 39
2019-10-09 21:00:00 20.7 14 Noroeste 31 Norte 0 -- -- 36
2019-10-09 20:00:00 21.9 9 Noroeste 26 Norte 0 -- -- 34
2019-10-09 19:00:00 23.7 8 Norte 24 Norte 0 -- -- 32
2019-10-09 18:00:00 25.6 12 Norte 27 Noroeste 0 -- -- 29
2019-10-09 17:00:00 27.2 5 Noroeste 22 Noroeste 0 -- -- 27
2019-10-09 16:00:00 27 10 Oeste 22 Noroeste 0 -- -- 27
2019-10-09 15:00:00 26.6 11 Oeste 22 Noroeste 0 -- -- 27
2019-10-09 14:00:00 25.5 10 Noroeste 22 Oeste 0 -- -- 39
2019-10-09 13:00:00 23.6 10 Noroeste 25 Noroeste 0 -- -- 46
2019-10-09 12:00:00 22 11 Noroeste 34 Norte 0 -- -- 53
2019-10-09 11:00:00 20.8 12 Noroeste 39 Oeste 0 -- -- 58
2019-10-09 10:00:00 19.6 -- -- -- -- -- -- -- --
2019-10-09 09:00:00 17.4 14 Norte 39 Noroeste 0 -- -- 75
2019-10-09 08:00:00 17.2 19 Noroeste 41 Norte 0 -- -- 76
2019-10-09 07:00:00 17.5 5 Norte 14 Norte 0 -- -- 72
2019-10-09 06:00:00 18.2 8 Norte 31 Noroeste 0 -- -- 71
2019-10-09 05:00:00 18.8 10 Noroeste 36 Noroeste 0 -- -- 67
2019-10-09 04:00:00 19.9 16 Noroeste 36 Noroeste 0 -- -- 60
2019-10-09 03:00:00 19.2 0 Calma 9 Sudeste 0 -- -- 55
2019-10-09 02:00:00 19.5 0 Calma 14 Oeste 0 -- -- 53
2019-10-09 01:00:00 21.5 6 Oeste 21 Noroeste 0 -- -- 48
2019-10-09 00:00:00 22.5 9 Oeste 29 Norte 0 -- -- 45
2019-10-08 23:00:00 -- -- -- -- -- -- -- -- --
2019-10-08 22:00:00 24.4 13 Noroeste 25 Noroeste 0 -- -- 38
2019-10-08 21:00:00 23.9 11 Noroeste 17 Oeste 0 -- -- 37
2019-10-08 20:00:00 24.3 2 Oeste 17 Sudeste 0 -- -- 36
2019-10-08 19:00:00 26.9 7 Sudeste 19 Sur 0 -- -- 32
2019-10-08 18:00:00 28.4 9 Sur 22 Sur 0 -- -- 30
2019-10-08 17:00:00 29.3 9 Sur 26 Sudeste 0 -- -- 28
2019-10-08 16:00:00 29 6 Sur 24 Sudeste 0 -- -- 29
2019-10-08 15:00:00 29 8 Sudeste 23 Sudeste 0 -- -- 29
2019-10-08 14:00:00 28 5 Sudoeste 20 Sudeste 0 -- -- 31
2019-10-08 13:00:00 27.1 8 Sudeste 20 Sur 0 -- -- 32
2019-10-08 12:00:00 25.1 7 Este 14 Este 0 -- -- 33
2019-10-08 11:00:00 23.6 2 Sudeste 7 Sur 0 -- -- 36
2019-10-08 10:00:00 21.8 3 Este 6 Nordeste 0 -- -- 40
2019-10-08 09:00:00 16.2 0 Calma 3 Oeste 0 -- -- 53
2019-10-08 08:00:00 14.4 0 Calma 7 Noroeste 0 -- -- 56
2019-10-08 07:00:00 14.7 3 Noroeste 9 Noroeste 0 -- -- 53
2019-10-08 06:00:00 16.8 6 Oeste 10 Oeste 0 -- -- 46
2019-10-08 05:00:00 16.4 3 Norte 8 Norte 0 -- -- 46
2019-10-08 04:00:00 16.8 4 Sur 8 Oeste 0 -- -- 45
2019-10-08 03:00:00 17.4 3 Norte 9 Sudeste 0 -- -- 43
2019-10-08 02:00:00 18.8 5 Sur 21 Noroeste 0 -- -- 41
2019-10-08 01:00:00 19 3 Noroeste 15 Noroeste 0 -- -- 40
2019-10-08 00:00:00 21.6 5 Noroeste 19 Noroeste 0 -- -- 36
2019-10-07 23:00:00 21.2 5 Noroeste 22 Oeste 0 -- -- 37
2019-10-07 22:00:00 -- -- -- -- -- -- -- -- --
2019-10-07 21:00:00 22.2 4 Noroeste 15 Noroeste 0 -- -- 37
2019-10-07 20:00:00 23.7 6 Norte 23 Norte 0 -- -- 33
2019-10-07 19:00:00 25.3 11 Norte 25 Noroeste 0 -- -- 31
2019-10-07 18:00:00 26.9 12 Nordeste 28 Nordeste 0 -- -- 31
2019-10-07 17:00:00 28 9 Norte 22 Norte 0 -- -- 29
2019-10-07 16:00:00 28.1 12 Nordeste 24 Noroeste 0 -- -- 29
2019-10-07 15:00:00 29 9 Norte 27 Nordeste 0 -- -- 26
2019-10-07 14:00:00 28.8 8 Norte 32 Noroeste 0 -- -- 25
2019-10-07 13:00:00 26.2 13 Norte 29 Noroeste 0 -- -- 25
2019-10-07 12:00:00 24.9 12 Noroeste 30 Norte 0 -- -- 24
2019-10-07 11:00:00 23.8 10 Noroeste 32 Noroeste 0 -- -- 28
2019-10-07 10:00:00 21.6 17 Noroeste 32 Noroeste 0 -- -- 29
2019-10-07 09:00:00 20.1 12 Noroeste 26 Noroeste 0 -- -- 31
2019-10-07 08:00:00 18.2 5 Sudoeste 17 Noroeste 0 -- -- 35
2019-10-07 07:00:00 17.8 5 Este 26 Norte 0 -- -- 41
2019-10-07 06:00:00 18.6 6 Noroeste 32 Oeste 0 -- -- 40
2019-10-07 05:00:00 17.7 10 Oeste 29 Oeste 0 -- -- 46
2019-10-07 04:00:00 19.1 14 Noroeste 31 Noroeste 0 -- -- 44
2019-10-07 03:00:00 15.6 3 Nordeste 11 Sudoeste 0 -- -- 49
2019-10-07 02:00:00 -- -- -- -- -- -- -- -- --
2019-10-07 01:00:00 18.8 12 Noroeste 26 Noroeste 0 -- -- 43
2019-10-07 00:00:00 19.1 13 Noroeste 24 Noroeste 0 -- -- 43
2019-10-06 23:00:00 19.7 11 Noroeste 26 Noroeste 0 -- -- 41
2019-10-06 22:00:00 20.3 12 Norte 34 Noroeste 0 -- -- 41
2019-10-06 21:00:00 20.8 9 Noroeste 27 Noroeste 0 -- -- 41
2019-10-06 20:00:00 22.3 8 Norte 22 Norte 0 -- -- 35
2019-10-06 19:00:00 24.1 8 Norte 25 Norte 0 -- -- 31
2019-10-06 18:00:00 25.5 9 Norte 23 Noroeste 0 -- -- 28
2019-10-06 17:00:00 26.4 6 Norte 24 Oeste 0 -- -- 30
2019-10-06 16:00:00 25.9 10 Norte 28 Noroeste 0 -- -- 30
2019-10-06 15:00:00 26.3 12 Noroeste 31 Oeste 0 -- -- 26
2019-10-06 14:00:00 27.3 8 Noroeste 24 Oeste 0 -- -- 24
2019-10-06 13:00:00 26.2 9 Noroeste 21 Noroeste 0 -- -- 24
2019-10-06 12:00:00 25.8 7 Sur 17 Oeste 0 -- -- 31
2019-10-06 11:00:00 23.5 3 Oeste 19 Nordeste 0 -- -- 37
2019-10-06 10:00:00 20.6 6 Sudoeste 17 Este 0 -- -- 45
2019-10-06 09:00:00 17.4 3 Sur 8 Oeste 0 -- -- 51
2019-10-06 08:00:00 13.7 0 Calma 10 Noroeste 0 -- -- 61
2019-10-06 07:00:00 14.4 4 Nordeste 10 Este 0 -- -- 57
2019-10-06 06:00:00 14 3 Sudoeste 9 Sudeste 0 -- -- 51
2019-10-06 05:00:00 14.7 6 Nordeste 14 Sudeste 0 -- -- 43
2019-10-06 04:00:00 15.7 3 Nordeste 10 Nordeste 0 -- -- 41
2019-10-06 03:00:00 16.4 3 Sudoeste 27 Noroeste 0 -- -- 43
2019-10-06 02:00:00 18.3 14 Oeste 31 Norte 0 -- -- 42
2019-10-06 01:00:00 19.5 15 Noroeste 30 Noroeste 0 -- -- 41
2019-10-06 00:00:00 19.1 9 Noroeste 21 Oeste 0 -- -- 41
2019-10-05 23:00:00 20.7 13 Noroeste 32 Noroeste 0 -- -- 38
2019-10-05 22:00:00 21.5 17 Noroeste 31 Noroeste 0 -- -- 38
2019-10-05 21:00:00 21.9 10 Noroeste 26 Noroeste 0 -- -- 38
2019-10-05 20:00:00 23.3 10 Norte 23 Noroeste 0 -- -- 34
2019-10-05 19:00:00 25.3 9 Norte 24 Norte 0 -- -- 30
2019-10-05 18:00:00 26.6 9 Sudeste 17 Sudoeste 0 -- -- 34
2019-10-05 17:00:00 27.5 6 Sudoeste 19 Sudeste 0 -- -- 32
2019-10-05 16:00:00 27.1 6 Este 20 Sudeste 0 -- -- 34
2019-10-05 15:00:00 27.5 8 Sudeste 21 Sudeste 0 -- -- 34
2019-10-05 14:00:00 26.2 8 Sur 17 Sudeste 0 -- -- 38
2019-10-05 13:00:00 24.4 8 Sudoeste 17 Sudeste 0 -- -- 42
2019-10-05 12:00:00 24 7 Sur 14 Sur 0 -- -- 42
2019-10-05 11:00:00 23.8 4 Sur 8 Sudoeste 0 -- -- 45
2019-10-05 10:00:00 20.8 3 Este 8 Noroeste 0 -- -- 52
2019-10-05 09:00:00 15.8 4 Nordeste 16 Noroeste 0 -- -- 66
2019-10-05 08:00:00 12.9 4 Norte 7 Nordeste 0 -- -- 75
2019-10-05 07:00:00 13.8 3 Norte 6 Este 0 -- -- 71
2019-10-05 06:00:00 14.5 2 Norte 7 Sudoeste 0 -- -- 69
2019-10-05 05:00:00 16.4 -- -- -- -- 0 -- -- 63
2019-10-05 04:00:00 18 8 Noroeste 22 Noroeste 0 -- -- 58
2019-10-05 03:00:00 18.3 9 Noroeste 31 Noroeste 0 -- -- 57
2019-10-05 02:00:00 18.6 14 Noroeste 31 Noroeste 0 -- -- 57
2019-10-05 01:00:00 19.3 -- -- -- -- 0 -- -- 59
2019-10-05 00:00:00 19.9 9 Noroeste 20 Noroeste 0 -- -- 58
2019-10-04 23:00:00 18.9 4 Nordeste 12 Noroeste 0 -- -- 63
2019-10-04 22:00:00 19.5 5 Noroeste 10 Norte 0 -- -- 62
2019-10-04 21:00:00 21 5 Sudoeste 22 Norte 0 -- -- 56
2019-10-04 20:00:00 22.2 8 Noroeste 17 Oeste 0 -- -- 52
2019-10-04 19:00:00 24.1 9 Noroeste 18 Oeste 0 -- -- 47
2019-10-04 18:00:00 26.4 6 Oeste 14 Sudeste 0 -- -- 38
2019-10-04 17:00:00 27.4 4 Sudeste 16 Este 0 -- -- 28
2019-10-04 16:00:00 26.7 8 Este 20 Sudeste 0 -- -- 28
2019-10-04 15:00:00 27.5 10 Sudeste 22 Sudeste 0 -- -- 28
2019-10-04 14:00:00 27 9 Sudeste 18 Sudeste 0 -- -- 29
2019-10-04 13:00:00 25 6 Sudeste 14 Sudeste 0 -- -- 32
2019-10-04 12:00:00 23.3 6 Sudeste 13 Sur -- -- -- 35
2019-10-04 11:00:00 22.6 5 Sudoeste 9 Sudoeste 0 -- -- 42
2019-10-04 10:00:00 20.9 4 Sudoeste 8 Sudoeste 0 -- -- 46
2019-10-04 09:00:00 14.3 4 Norte 8 Norte 0 -- -- 64
2019-10-04 08:00:00 12.7 2 Noroeste 9 Noroeste 0 -- -- 71
2019-10-04 07:00:00 13.8 0 Calma 8 Noroeste 0 -- -- 67
2019-10-04 06:00:00 14.6 0 Calma 10 Oeste 0 -- -- 65
2019-10-04 05:00:00 16.5 3 Sudeste 16 Noroeste 0 -- -- 58
2019-10-04 04:00:00 17.2 6 Nordeste 28 Oeste 0 -- -- 49
2019-10-04 03:00:00 18.5 14 Noroeste 38 Noroeste 0 -- -- 44
2019-10-04 02:00:00 18.7 8 Noroeste 27 Noroeste 0 -- -- 42
2019-10-04 01:00:00 19.5 9 Noroeste 30 Noroeste 0 -- -- 38
2019-10-04 00:00:00 18.1 6 Norte 16 Norte 0 -- -- 40
2019-10-03 23:00:00 17.8 3 Norte 11 Noroeste 0 -- -- 41
2019-10-03 22:00:00 17.6 2 Oeste 9 Sudoeste 0 -- -- 40
2019-10-03 21:00:00 18.7 5 Nordeste 12 Nordeste 0 -- -- 36
2019-10-03 20:00:00 21.2 3 Norte 14 Norte 0 -- -- 32
2019-10-03 19:00:00 23.4 8 Norte 32 Norte 0 -- -- 28
2019-10-03 18:00:00 25.3 11 Norte 35 Noroeste 0 -- -- 24
2019-10-03 17:00:00 25.4 12 Norte 30 Noroeste 0 -- -- 25
2019-10-03 16:00:00 25.7 10 Norte 32 Noroeste 0 -- -- 25
2019-10-03 15:00:00 25.4 11 Noroeste 27 Noroeste 0 -- -- 26
2019-10-03 14:00:00 24.8 8 Norte 23 Norte 0 -- -- 29
2019-10-03 13:00:00 24.5 5 Nordeste 26 Oeste 0 -- -- 31
2019-10-03 12:00:00 22.7 8 Norte 26 Noroeste 0 -- -- 34
2019-10-03 11:00:00 20.8 9 Noroeste 23 Oeste 0 -- -- 38
2019-10-03 10:00:00 18.2 10 Noroeste 24 Noroeste 0 -- -- 42
2019-10-03 09:00:00 14.3 14 Oeste 23 Oeste 0 -- -- 51
2019-10-03 08:00:00 12.2 4 Noroeste 12 Noroeste 0 -- -- 58
2019-10-03 07:00:00 10.7 3 Norte 8 Sudeste 0 -- -- 63
2019-10-03 06:00:00 11.4 0 Calma 8 Este 0 -- -- 61
2019-10-03 05:00:00 12.4 4 Nordeste 15 Noroeste 0 -- -- 57
2019-10-03 04:00:00 14.4 6 Oeste 17 Noroeste 0 -- -- 51
2019-10-03 03:00:00 15 9 Oeste 25 Noroeste 0 -- -- 49
2019-10-03 02:00:00 14.4 12 Oeste 21 Oeste 0 -- -- 51
2019-10-03 01:00:00 14.7 9 Oeste 19 Oeste 0 -- -- 50
2019-10-03 00:00:00 15.3 9 Oeste 27 Noroeste 0 -- -- 49
2019-10-02 23:00:00 15.7 12 Noroeste 27 Noroeste 0 -- -- 48
2019-10-02 22:00:00 15.3 2 Noroeste 18 Noroeste 0 -- -- 48
2019-10-02 21:00:00 16.4 6 Noroeste 19 Norte 0 -- -- 45
2019-10-02 20:00:00 17.5 6 Norte 22 Norte 0 -- -- 43
2019-10-02 19:00:00 19.3 8 Norte 26 Noroeste 0 -- -- 38
2019-10-02 18:00:00 20.6 13 Norte 32 Noroeste 0 -- -- 34
2019-10-02 17:00:00 20.9 -- -- -- -- -- -- -- --
2019-10-02 16:00:00 21.1 10 Norte 28 Noroeste 0 -- -- 34
2019-10-02 15:00:00 21.1 12 Norte 27 Noroeste 0 -- -- 35
2019-10-02 14:00:00 19.7 15 Noroeste 33 Oeste 0 -- -- 37
2019-10-02 13:00:00 19.4 10 Nordeste 37 Noroeste 0 -- -- 41
2019-10-02 12:00:00 17.2 14 Noroeste 30 Noroeste 0 -- -- 49
2019-10-02 11:00:00 16.1 10 Norte 35 Norte 0 -- -- 54
2019-10-02 10:00:00 15.5 6 Sudeste 19 Nordeste 0 -- -- 57
2019-10-02 09:00:00 12.7 8 Sur 40 Noroeste 0 -- -- 64
2019-10-02 08:00:00 11.7 19 Noroeste 47 Norte 0 -- -- 70
2019-10-02 07:00:00 12.2 23 Noroeste 46 Noroeste 0 -- -- 70
2019-10-02 06:00:00 12.4 16 Noroeste 39 Noroeste 0 -- -- 71
2019-10-02 05:00:00 13.1 19 Oeste 39 Noroeste 0 -- -- 69
2019-10-02 04:00:00 13.6 14 Oeste 28 Noroeste 0 -- -- 69
2019-10-02 03:00:00 15 10 Sur 28 Sudoeste 0 -- -- 64
2019-10-02 02:00:00 15.6 9 Este 24 Sudeste 0 -- -- 62
2019-10-02 01:00:00 16.5 8 Nordeste 42 Sudoeste 0 -- -- 56
2019-10-02 00:00:00 17.4 9 Noroeste 23 Noroeste 0 -- -- 51
2019-10-01 23:00:00 17.4 5 Sudeste 13 Nordeste 0 -- -- 53
2019-10-01 22:00:00 18 4 Noroeste 23 Oeste 0 -- -- 53
2019-10-01 21:00:00 18.8 12 Oeste 28 Oeste 0 -- -- 49
2019-10-01 20:00:00 19.9 9 Oeste 33 Noroeste 0 -- -- 47
2019-10-01 19:00:00 21.3 10 Noroeste 28 Noroeste 0 -- -- 44
2019-10-01 18:00:00 22 10 Noroeste 33 Oeste 0 -- -- 46
2019-10-01 17:00:00 22.7 13 Noroeste 35 Norte 0 -- -- 45
2019-10-01 16:00:00 23.2 14 Norte 40 Noroeste 0 -- -- 44
2019-10-01 15:00:00 23.5 17 Norte 38 Noroeste 0 -- -- 42
2019-10-01 14:00:00 23.7 13 Noroeste 35 Norte 0 -- -- 40
2019-10-01 13:00:00 23.3 12 Nordeste 39 Noroeste 0 -- -- 41
2019-10-01 12:00:00 19.7 -- -- -- -- 0 -- -- 59
2019-10-01 11:00:00 21.6 17 Noroeste 39 Oeste 0 -- -- 52
2019-10-01 10:00:00 21.9 3 Sudeste 6 Nordeste 0 -- -- 38
2019-10-01 09:00:00 -- -- -- -- -- -- -- -- --
2019-10-01 08:00:00 16.2 4 Oeste 8 Sudoeste 0 -- -- 51
2019-10-01 07:00:00 15.4 4 Oeste 8 Sudoeste 0 -- -- 42
2019-10-01 06:00:00 15.9 0 Calma 13 Noroeste 0 -- -- 36
2019-10-01 05:00:00 15.3 3 Noroeste 13 Oeste 0 -- -- 38
2019-10-01 04:00:00 14.7 4 Nordeste 15 Oeste 0 -- -- 39
2019-10-01 03:00:00 17.6 6 Noroeste 16 Oeste 0 -- -- 33
2019-10-01 02:00:00 19.7 9 Noroeste 16 Oeste 0 -- -- 29
2019-10-01 01:00:00 17.1 4 Norte 13 Noroeste 0 -- -- 32
2019-10-01 00:00:00 20.3 8 Noroeste 14 Noroeste 0 -- -- 25
2019-09-30 23:00:00 18.7 5 Norte 9 Nordeste 0 -- -- 25
2019-09-30 22:00:00 20.5 3 Norte 18 Noroeste 0 -- -- 23
2019-09-30 21:00:00 22.8 7 Oeste 13 Oeste 0 -- -- 19
2019-09-30 20:00:00 -- -- -- -- -- -- -- -- --
2019-09-30 19:00:00 27.2 8 Sudoeste 18 Sur 0 -- -- 20
2019-09-30 18:00:00 28.7 7 Sur 22 Sudeste 0 -- -- 20
2019-09-30 17:00:00 29.4 9 Sur 23 Sur 0 -- -- 18
2019-09-30 16:00:00 29.8 10 Sur 28 Sudeste 0 -- -- 17
2019-09-30 15:00:00 29.3 10 Sudeste 25 Sur 0 -- -- 20
2019-09-30 14:00:00 29 6 Sudoeste 18 Sur 0 -- -- 26
2019-09-30 13:00:00 27.3 7 Sudoeste 14 Sur 0 -- -- 27
2019-09-30 12:00:00 26.1 5 Sur 13 Sur 0 -- -- 32
2019-09-30 11:00:00 24 4 Sur 9 Sudeste 0 -- -- 39
2019-09-30 10:00:00 21.8 3 Sur 6 Nordeste 0 -- -- 45
2019-09-30 09:00:00 17.8 2 Este 21 Oeste 0 -- -- 55
2019-09-30 08:00:00 16 9 Noroeste 19 Oeste 0 -- -- 59
2019-09-30 07:00:00 15.6 3 Norte 9 Noroeste 0 -- -- 63
2019-09-30 06:00:00 16.7 3 Nordeste 15 Oeste 0 -- -- 61
2019-09-30 05:00:00 18.9 8 Oeste 31 Noroeste 0 -- -- 53
2019-09-30 04:00:00 19.7 15 Noroeste 28 Noroeste 0 -- -- 46
2019-09-30 03:00:00 20.5 11 Noroeste 26 Noroeste 0 -- -- 39
2019-09-30 02:00:00 20.2 6 Norte 17 Norte 0 -- -- 35
2019-09-30 01:00:00 19.9 3 Nordeste 12 Este 0 -- -- 30
2019-09-30 00:00:00 20.8 2 Este 20 Norte 0 -- -- 27
2019-09-29 23:00:00 21.5 4 Norte 15 Noroeste 0 -- -- 28
2019-09-29 22:00:00 23.4 8 Noroeste 23 Noroeste 0 -- -- 26
2019-09-29 21:00:00 22.9 9 Noroeste 17 Noroeste 0 -- -- 30
2019-09-29 20:00:00 24.6 7 Norte 17 Noroeste 0 -- -- 27
2019-09-29 19:00:00 27.2 6 Norte 21 Noroeste 0 -- -- 26
2019-09-29 18:00:00 29 5 Oeste 24 Sudeste 0 -- -- 25
2019-09-29 17:00:00 28.7 15 Sudeste 28 Sudeste 0 -- -- 25
2019-09-29 16:00:00 28.6 14 Sudeste 25 Este 0 -- -- 25
2019-09-29 15:00:00 29.7 8 Sudeste 19 Sudeste 0 -- -- 24
2019-09-29 14:00:00 28.5 8 Sudeste 20 Sudeste 0 -- -- 25
2019-09-29 13:00:00 27.2 5 Sur 19 Sur 0 -- -- 26
2019-09-29 12:00:00 24.9 5 Sudoeste 9 Sur 0 -- -- 30
2019-09-29 11:00:00 24 3 Sur 8 Sudoeste 0 -- -- 33
2019-09-29 10:00:00 21.7 2 Nordeste 6 Sur 0 -- -- 34
2019-09-29 09:00:00 16.9 2 Nordeste 11 Noroeste 0 -- -- 44
2019-09-29 08:00:00 13.2 5 Norte 10 Norte 0 -- -- 49
2019-09-29 07:00:00 13.4 4 Norte 8 Sudoeste 0 -- -- 50
2019-09-29 06:00:00 13.3 3 Nordeste 7 Nordeste 0 -- -- 51
2019-09-29 05:00:00 14.2 2 Norte 9 Noroeste 0 -- -- 49
2019-09-29 04:00:00 14.4 3 Noroeste 17 Noroeste 0 -- -- 48
2019-09-29 03:00:00 15.7 4 Noroeste 10 Noroeste 0 -- -- 44
2019-09-29 02:00:00 15.5 6 Noroeste 11 Noroeste 0 -- -- 45
2019-09-29 01:00:00 14.8 5 Nordeste 10 Nordeste 0 -- -- 47
2019-09-29 00:00:00 17.2 3 Nordeste 20 Oeste 0 -- -- 42
2019-09-28 23:00:00 20.5 9 Noroeste 15 Oeste 0 -- -- 36
2019-09-28 22:00:00 19.8 5 Noroeste 13 Noroeste 0 -- -- 33
2019-09-28 21:00:00 21.4 10 Noroeste 13 Noroeste 0 -- -- 31
2019-09-28 20:00:00 23.7 5 Sudeste 18 Sur 0 -- -- 28
2019-09-28 19:00:00 26.4 8 Sur 20 Sudeste 0 -- -- 24
2019-09-28 18:00:00 27.8 7 Sudeste 20 Sur 0 -- -- 24
2019-09-28 17:00:00 28.4 8 Sur 19 Sur 0 -- -- 25
2019-09-28 16:00:00 27.9 8 Sur 20 Sudeste 0 -- -- 27
2019-09-28 15:00:00 28.2 9 Sur 21 Sudeste 0 -- -- 26
2019-09-28 14:00:00 27.6 6 Sur 14 Sudoeste 0 -- -- 30
2019-09-28 13:00:00 25.3 6 Sudoeste 13 Sudeste 0 -- -- 32
2019-09-28 12:00:00 24.5 5 Sur 10 Sur 0 -- -- 37
2019-09-28 11:00:00 23.5 3 Sur 9 Sudeste 0 -- -- 42
2019-09-28 10:00:00 19.7 3 Sudeste 6 Sudeste 0 -- -- 51
2019-09-28 09:00:00 16.7 2 Sudeste 8 Oeste 0 -- -- 57
2019-09-28 08:00:00 11.5 3 Norte 9 Noroeste 0 -- -- 79
2019-09-28 07:00:00 13.3 7 Nordeste 26 Oeste 0 -- -- 75
2019-09-28 06:00:00 16 21 Oeste 30 Noroeste 0 -- -- 68
2019-09-28 05:00:00 16.2 14 Noroeste 26 Oeste 0 -- -- 66
2019-09-28 04:00:00 16.3 8 Noroeste 28 Oeste 0 -- -- 66
2019-09-28 03:00:00 16.8 13 Noroeste 30 Noroeste 0 -- -- 65
2019-09-28 02:00:00 17.6 14 Noroeste 36 Noroeste 0 -- -- 62
2019-09-28 01:00:00 18.3 12 Noroeste 31 Noroeste 0 -- -- 55
2019-09-28 00:00:00 19.3 15 Noroeste 28 Noroeste 0 -- -- 43
2019-09-27 23:00:00 20.2 10 Noroeste 25 Noroeste 0 -- -- 35
2019-09-27 22:00:00 20.4 12 Noroeste 32 Noroeste 0 -- -- 34
2019-09-27 21:00:00 22.3 19 Noroeste 33 Noroeste 0 -- -- 31
2019-09-27 20:00:00 23.1 11 Noroeste 26 Noroeste 0 -- -- 28
2019-09-27 19:00:00 25.1 10 Noroeste 28 Noroeste 0 -- -- 26
2019-09-27 18:00:00 26.3 12 Norte 31 Norte 0 -- -- 27
2019-09-27 17:00:00 28.1 8 Sur 22 Sudeste 0 -- -- 26
2019-09-27 16:00:00 28.2 6 Sudeste 21 Sudoeste 0 -- -- 25
2019-09-27 15:00:00 28.9 5 Sudoeste 21 Sudoeste 0 -- -- 24
2019-09-27 14:00:00 27 7 Noroeste 22 Noroeste 0 -- -- 25
2019-09-27 13:00:00 26.4 7 Noroeste 26 Norte 0 -- -- 26
2019-09-27 12:00:00 25.6 9 Noroeste 24 Oeste 0 -- -- 28
2019-09-27 11:00:00 24.6 6 Norte 27 Oeste 0 -- -- 33
2019-09-27 10:00:00 22.7 5 Noroeste 19 Noroeste 0 -- -- 37
2019-09-27 09:00:00 19.6 3 Nordeste 12 Oeste 0 -- -- 41
2019-09-27 08:00:00 16.5 6 Sudoeste 12 Oeste 0 -- -- 43
2019-09-27 07:00:00 16.4 3 Sur 19 Noroeste 0 -- -- 42
2019-09-27 06:00:00 17.1 3 Este 17 Nordeste 0 -- -- 39
2019-09-27 05:00:00 17 0 Calma 14 Oeste 0 -- -- 38
2019-09-27 04:00:00 17.5 4 Nordeste 14 Nordeste 0 -- -- 36
2019-09-27 03:00:00 18 4 Nordeste 10 Sudeste 0 -- -- 36
2019-09-27 02:00:00 18.7 2 Sudoeste 14 Noroeste 0 -- -- 35
2019-09-27 01:00:00 20.3 6 Oeste 27 Noroeste 0 -- -- 33
2019-09-27 00:00:00 21.2 14 Noroeste 27 Noroeste 0 -- -- 32
2019-09-26 23:00:00 21 8 Norte 19 Noroeste 0 -- -- 34
2019-09-26 22:00:00 21 5 Norte 16 Noroeste 0 -- -- 43
2019-09-26 21:00:00 22.2 7 Noroeste 14 Noroeste 0 -- -- 43
2019-09-26 20:00:00 22.8 6 Noroeste 13 Sudeste 0 -- -- 41
2019-09-26 19:00:00 26 5 Sudoeste 17 Este 0 -- -- 35
2019-09-26 18:00:00 26.4 9 Sudeste 18 Sudeste 0 -- -- 34
2019-09-26 17:00:00 26.7 9 Sudeste 21 Sudeste 0 -- -- 34
2019-09-26 16:00:00 27.3 7 Sudeste 21 Sudeste 0 -- -- 35
2019-09-26 15:00:00 26.6 9 Sudeste 23 Sudeste 0 -- -- 36
2019-09-26 14:00:00 26.1 8 Sudeste 22 Sudeste 0 -- -- 38
2019-09-26 13:00:00 24.9 4 Sudoeste 17 Sudeste 0 -- -- 40
2019-09-26 12:00:00 23.4 4 Sudeste 12 Sudeste 0 -- -- 43
2019-09-26 11:00:00 22 4 Sur 9 Sudoeste 0 -- -- 46
2019-09-26 10:00:00 20.2 4 Este 6 Este 0 -- -- 51
2019-09-26 09:00:00 16.8 2 Nordeste 9 Noroeste 0 -- -- 60
2019-09-26 08:00:00 13 4 Noroeste 9 Oeste 0 -- -- 72
2019-09-26 07:00:00 12.5 3 Norte 7 Nordeste 0 -- -- 74
2019-09-26 06:00:00 13.7 3 Norte 12 Noroeste 0 -- -- 68
2019-09-26 05:00:00 14.2 4 Noroeste 9 Noroeste 0 -- -- 66
2019-09-26 04:00:00 14.5 2 Norte 9 Sudeste -- -- -- 63
2019-09-26 03:00:00 15.5 2 Este 7 Sur 0 -- -- 60
2019-09-26 02:00:00 15.3 2 Este 9 Noroeste 0 -- -- 59
2019-09-26 01:00:00 16.1 3 Sudeste 13 Norte 0 -- -- 56
2019-09-26 00:00:00 16.9 0 Calma 13 Noroeste 0 -- -- 53
2019-09-25 23:00:00 17.5 4 Nordeste 22 Noroeste 0 -- -- 51
2019-09-25 22:00:00 17 5 Noroeste 12 Noroeste 0 -- -- 52
2019-09-25 21:00:00 18.2 5 Sudoeste 16 Norte 0 -- -- 49
2019-09-25 20:00:00 19.7 8 Norte 23 Norte 0 -- -- 44
2019-09-25 19:00:00 22 6 Norte 23 Norte 0 -- -- 38
2019-09-25 18:00:00 22.8 9 Norte 23 Noroeste 0 -- -- 36
2019-09-25 17:00:00 22.5 12 Noroeste 27 Oeste 0 -- -- 36
2019-09-25 16:00:00 22.5 12 Norte 34 Oeste 0 -- -- 39
2019-09-25 15:00:00 21.9 12 Oeste 27 Noroeste 0 -- -- 40
2019-09-25 14:00:00 21.6 8 Norte 27 Norte 0 -- -- 39
2019-09-25 13:00:00 20.4 11 Norte 28 Norte 0 -- -- 41
2019-09-25 12:00:00 19.5 6 Nordeste 24 Oeste 0 -- -- 45
2019-09-25 11:00:00 17.7 9 Norte 23 Norte 0 -- -- 54
2019-09-25 10:00:00 17 8 Norte 19 Noroeste 0 -- -- 57
2019-09-25 09:00:00 14.5 6 Este 17 Sudeste 0 -- -- 66
2019-09-25 08:00:00 13 10 Norte 36 Norte 0 -- -- 69
2019-09-25 07:00:00 13.2 10 Noroeste 30 Noroeste 0 -- -- 70
2019-09-25 06:00:00 13.5 14 Noroeste 35 Noroeste 0 -- -- 73
2019-09-25 05:00:00 13.9 10 Norte 27 Norte 0 -- -- 72
2019-09-25 04:00:00 14.4 11 Norte 27 Noroeste 0 -- -- 73
2019-09-25 03:00:00 15.1 15 Noroeste 37 Noroeste -- -- -- 71
2019-09-25 02:00:00 15.9 20 Noroeste 34 Noroeste 0 -- -- 71
2019-09-25 01:00:00 16.5 8 Norte 22 Nordeste 0 -- -- 72
2019-09-25 00:00:00 17.4 9 Norte 21 Norte 0 -- -- 70
2019-09-24 23:00:00 18.1 8 Noroeste 21 Norte 0 -- -- 74
2019-09-24 22:00:00 18.3 4 Norte 19 Norte 0 -- -- 75
2019-09-24 21:00:00 19.7 7 Noroeste 20 Norte 0 -- -- 70
2019-09-24 20:00:00 21.2 8 Norte 30 Noroeste 0 -- -- 65
2019-09-24 19:00:00 23.1 9 Noroeste 25 Norte 0 -- -- 59
2019-09-24 18:00:00 25.2 9 Noroeste 27 Oeste 0 -- -- 50
2019-09-24 17:00:00 26.6 5 Este 17 Sudeste 0 -- -- 40
2019-09-24 16:00:00 25.6 8 Sudeste 22 Sudeste 0 -- -- 39
2019-09-24 15:00:00 26.6 9 Sudeste 23 Sur 0 -- -- 36
2019-09-24 14:00:00 26 12 Sudeste 19 Sudeste 0 -- -- 35
2019-09-24 13:00:00 24.6 7 Sudeste 16 Sudeste 0 -- -- 39
2019-09-24 12:00:00 23.4 4 Sur 10 Sudoeste 0 -- -- 47
2019-09-24 11:00:00 20.5 5 Sur 10 Sudeste 0 -- -- 53
2019-09-24 10:00:00 19.4 3 Sudeste 7 Sur 0 -- -- 55
2019-09-24 09:00:00 16.2 0 Calma 9 Norte 0 -- -- 66
2019-09-24 08:00:00 10.5 0 Calma 12 Noroeste 0 -- -- 87
2019-09-24 07:00:00 12.3 0 Calma 5 Sur 0 -- -- 79
2019-09-24 06:00:00 11.9 0 Calma 6 Sudoeste 0 -- -- 82
2019-09-24 05:00:00 12.3 4 Noroeste 12 Noroeste 0 -- -- 79
2019-09-24 04:00:00 12.4 3 Noroeste 4 Noroeste 0 -- -- 80
2019-09-24 03:00:00 12.3 0 Calma 11 Noroeste 0 -- -- 79
2019-09-24 02:00:00 14.3 2 Noroeste 5 Noroeste 0 -- -- 69
2019-09-24 01:00:00 14.7 4 Oeste 6 Oeste 0 -- -- 68
2019-09-24 00:00:00 15.7 2 Oeste 8 Noroeste 0 -- -- 64
2019-09-23 23:00:00 15.9 4 Norte 9 Norte 0 -- -- 65
2019-09-23 22:00:00 17.6 7 Norte 13 Norte 0 -- -- 61
2019-09-23 21:00:00 18.6 6 Norte 10 Nordeste 0 -- -- 59
2019-09-23 20:00:00 20.6 6 Este 16 Sudeste 0 -- -- 53
2019-09-23 19:00:00 22.6 7 Sudeste 15 Sudeste 0 -- -- 46
2019-09-23 18:00:00 22.7 8 Sudeste 20 Sudeste 0 -- -- 43
2019-09-23 17:00:00 23.4 9 Sudeste 16 Sur 0 -- -- 42
2019-09-23 16:00:00 23.3 9 Sur 24 Sudeste 0 -- -- 42
2019-09-23 15:00:00 23.1 7 Sudeste 21 Este 0 -- -- 44
2019-09-23 14:00:00 22.1 8 Sudeste 18 Sudeste 0 -- -- 49
2019-09-23 13:00:00 21.1 4 Sudeste 13 Sur 0 -- -- 50
2019-09-23 12:00:00 19.8 6 Sur 13 Sudeste 0 -- -- 51
2019-09-23 11:00:00 18.7 5 Sur 10 Sudeste 0 -- -- 57
2019-09-23 10:00:00 16.9 3 Este 7 Nordeste 0 -- -- 58
2019-09-23 09:00:00 15.3 0 Calma 9 Noroeste 0 -- -- 63
2019-09-23 08:00:00 11 5 Noroeste 8 Oeste 0 -- -- 77
2019-09-23 07:00:00 11 0 Calma 5 Sur 0 -- -- 76
2019-09-23 06:00:00 11.8 3 Sudoeste 8 Sudoeste 0 -- -- 72
2019-09-23 05:00:00 12.6 5 Sudoeste 9 Oeste 0 -- -- 68
2019-09-23 04:00:00 11 2 Nordeste 10 Nordeste 0 -- -- 73
2019-09-23 03:00:00 12 3 Noroeste 12 Noroeste 0 -- -- 69
2019-09-23 02:00:00 13.4 4 Oeste 14 Oeste 0 -- -- 63
2019-09-23 01:00:00 14.1 6 Oeste 13 Oeste 0 -- -- 60
2019-09-23 00:00:00 13.1 0 Calma 12 Noroeste 0 -- -- 66
2019-09-22 23:00:00 15.3 5 Noroeste 17 Noroeste 0 -- -- 57
2019-09-22 22:00:00 16.1 5 Noroeste 20 Noroeste 0 -- -- 55
2019-09-22 21:00:00 16.7 10 Noroeste 19 Noroeste 0 -- -- 53
2019-09-22 20:00:00 17.9 6 Norte 24 Noroeste 0 -- -- 49
2019-09-22 19:00:00 18.6 9 Norte 30 Norte 0 -- -- 50
2019-09-22 18:00:00 20.4 15 Norte 30 Norte 0 -- -- 45
2019-09-22 17:00:00 20.6 10 Noroeste 26 Norte 0 -- -- 46
2019-09-22 16:00:00 20.8 11 Norte 31 Nordeste 0 -- -- 49
2019-09-22 15:00:00 21 11 Noroeste 30 Noroeste 0 -- -- 49
2019-09-22 14:00:00 21.1 9 Noroeste 23 Noroeste 0 -- -- 46
2019-09-22 13:00:00 18.7 8 Noroeste 27 Noroeste 0 -- -- 55
2019-09-22 12:00:00 18.8 7 Oeste 28 Noroeste 0 -- -- 60
2019-09-22 11:00:00 14.9 14 Noroeste 32 Noroeste 0 -- -- 73
2019-09-22 10:00:00 15 9 Noroeste 21 Noroeste 0 -- -- 76
2019-09-22 09:00:00 13.6 10 Oeste 19 Noroeste 0 -- -- 87
2019-09-22 08:00:00 12.8 3 Norte 17 Nordeste 2.2 -- -- 97
2019-09-22 07:00:00 13.9 8 Norte 12 Nordeste 0 -- -- 98
2019-09-22 06:00:00 14.1 3 Norte 6 Norte 0.2 -- -- 97
2019-09-22 05:00:00 14.3 3 Nordeste 8 Nordeste 0 -- -- 97
2019-09-22 04:00:00 14.4 3 Norte 22 Sur 0 -- -- 97
2019-09-22 03:00:00 14.3 6 Sudoeste 18 Sudeste 0.8 -- -- 96
2019-09-22 02:00:00 14.7 7 Sur 17 Sudeste 0 -- -- 96
2019-09-22 01:00:00 14.5 3 Sudeste 18 Sur 0.2 -- -- 96
2019-09-22 00:00:00 14.9 4 Sudoeste 9 Sudoeste 0 -- -- 93